sensor_id;sensor_type;location;lat;lon;timestamp;temperature;humidity
31809;DHT22;18379;48.208;-1.518;2022-09-01T00:00:51;21.50;99.90
31809;DHT22;18379;48.208;-1.518;2022-09-01T00:05:52;21.40;99.90
31809;DHT22;18379;48.208;-1.518;2022-09-01T00:10:54;21.40;99.90
31809;DHT22;18379;48.208;-1.518;2022-09-01T00:15:55;21.40;99.90
31809;DHT22;18379;48.208;-1.518;2022-09-01T00:20:56;21.40;99.90
31809;DHT22;18379;48.208;-1.518;2022-09-01T00:25:58;21.50;99.90
31809;DHT22;18379;48.208;-1.518;2022-09-01T00:30:59;21.40;99.90
31809;DHT22;18379;48.208;-1.518;2022-09-01T00:36:01;21.40;99.90
31809;DHT22;18379;48.208;-1.518;2022-09-01T00:41:03;21.40;99.90
31809;DHT22;18379;48.208;-1.518;2022-09-01T00:46:07;21.40;99.90
31809;DHT22;18379;48.208;-1.518;2022-09-01T00:51:10;21.40;99.90
31809;DHT22;18379;48.208;-1.518;2022-09-01T00:56:14;21.30;99.90
31809;DHT22;18379;48.208;-1.518;2022-09-01T01:01:16;21.10;99.90
31809;DHT22;18379;48.208;-1.518;2022-09-01T01:06:18;21.00;99.90
31809;DHT22;18379;48.208;-1.518;2022-09-01T01:11:25;20.80;99.90
31809;DHT22;18379;48.208;-1.518;2022-09-01T01:16:27;20.50;99.90
31809;DHT22;18379;48.208;-1.518;2022-09-01T01:21:33;20.00;99.90
31809;DHT22;18379;48.208;-1.518;2022-09-01T01:26:54;19.90;99.90
31809;DHT22;18379;48.208;-1.518;2022-09-01T01:31:59;19.90;99.90
31809;DHT22;18379;48.208;-1.518;2022-09-01T01:37:01;19.90;99.90
31809;DHT22;18379;48.208;-1.518;2022-09-01T01:42:02;19.90;99.90
31809;DHT22;18379;48.208;-1.518;2022-09-01T01:47:06;19.70;99.90
31809;DHT22;18379;48.208;-1.518;2022-09-01T01:52:11;19.80;99.90
31809;DHT22;18379;48.208;-1.518;2022-09-01T01:57:15;20.00;99.90
31809;DHT22;18379;48.208;-1.518;2022-09-01T02:02:17;20.20;99.90
31809;DHT22;18379;48.208;-1.518;2022-09-01T02:07:18;20.20;99.90
31809;DHT22;18379;48.208;-1.518;2022-09-01T02:12:18;20.20;99.90
31809;DHT22;18379;48.208;-1.518;2022-09-01T02:17:21;20.20;99.90
31809;DHT22;18379;48.208;-1.518;2022-09-01T02:22:22;20.20;99.90
31809;DHT22;18379;48.208;-1.518;2022-09-01T02:27:22;20.10;99.90
31809;DHT22;18379;48.208;-1.518;2022-09-01T02:32:25;20.10;99.90
31809;DHT22;18379;48.208;-1.518;2022-09-01T02:37:26;20.10;99.90
31809;DHT22;18379;48.208;-1.518;2022-09-01T02:42:27;20.10;99.90
31809;DHT22;18379;48.208;-1.518;2022-09-01T02:47:29;20.10;99.90
31809;DHT22;18379;48.208;-1.518;2022-09-01T02:52:30;20.20;99.90
31809;DHT22;18379;48.208;-1.518;2022-09-01T02:57:34;20.20;99.90
31809;DHT22;18379;48.208;-1.518;2022-09-01T03:02:35;20.20;99.90
31809;DHT22;18379;48.208;-1.518;2022-09-01T03:07:36;20.10;99.90
31809;DHT22;18379;48.208;-1.518;2022-09-01T03:12:37;20.10;99.90
31809;DHT22;18379;48.208;-1.518;2022-09-01T03:17:38;20.00;99.90
31809;DHT22;18379;48.208;-1.518;2022-09-01T03:22:38;20.00;99.90
31809;DHT22;18379;48.208;-1.518;2022-09-01T03:27:39;20.00;99.90
31809;DHT22;18379;48.208;-1.518;2022-09-01T03:32:40;20.00;99.90
31809;DHT22;18379;48.208;-1.518;2022-09-01T03:37:41;19.90;99.90
31809;DHT22;18379;48.208;-1.518;2022-09-01T03:42:44;19.70;99.90
31809;DHT22;18379;48.208;-1.518;2022-09-01T03:47:45;19.60;99.90
31809;DHT22;18379;48.208;-1.518;2022-09-01T03:52:55;19.60;99.90
31809;DHT22;18379;48.208;-1.518;2022-09-01T03:57:58;19.70;99.90
31809;DHT22;18379;48.208;-1.518;2022-09-01T04:03:02;19.70;99.90
31809;DHT22;18379;48.208;-1.518;2022-09-01T04:08:05;19.70;99.90
31809;DHT22;18379;48.208;-1.518;2022-09-01T04:13:07;19.60;99.90
31809;DHT22;18379;48.208;-1.518;2022-09-01T04:18:11;19.60;99.90
31809;DHT22;18379;48.208;-1.518;2022-09-01T04:23:22;19.50;99.90
31809;DHT22;18379;48.208;-1.518;2022-09-01T04:28:32;19.50;99.90
31809;DHT22;18379;48.208;-1.518;2022-09-01T04:33:37;19.40;99.90
31809;DHT22;18379;48.208;-1.518;2022-09-01T04:38:45;19.30;99.90
31809;DHT22;18379;48.208;-1.518;2022-09-01T04:43:48;19.30;99.90
31809;DHT22;18379;48.208;-1.518;2022-09-01T04:48:52;19.30;99.90
31809;DHT22;18379;48.208;-1.518;2022-09-01T04:53:54;19.30;99.90
31809;DHT22;18379;48.208;-1.518;2022-09-01T04:58:55;19.30;99.90
31809;DHT22;18379;48.208;-1.518;2022-09-01T05:03:56;19.40;99.90
31809;DHT22;18379;48.208;-1.518;2022-09-01T05:09:00;19.40;99.90
31809;DHT22;18379;48.208;-1.518;2022-09-01T05:14:01;19.50;99.90
31809;DHT22;18379;48.208;-1.518;2022-09-01T05:19:04;19.40;99.90
31809;DHT22;18379;48.208;-1.518;2022-09-01T05:24:06;19.40;99.90
31809;DHT22;18379;48.208;-1.518;2022-09-01T05:29:07;19.50;99.90
31809;DHT22;18379;48.208;-1.518;2022-09-01T05:34:14;19.50;99.90
31809;DHT22;18379;48.208;-1.518;2022-09-01T05:39:26;19.50;99.90
31809;DHT22;18379;48.208;-1.518;2022-09-01T05:44:27;19.50;99.90
31809;DHT22;18379;48.208;-1.518;2022-09-01T05:49:28;19.60;99.90
31809;DHT22;18379;48.208;-1.518;2022-09-01T05:54:32;19.60;99.90
31809;DHT22;18379;48.208;-1.518;2022-09-01T05:59:33;19.60;99.90
31809;DHT22;18379;48.208;-1.518;2022-09-01T06:04:37;19.60;99.90
31809;DHT22;18379;48.208;-1.518;2022-09-01T06:09:46;19.60;99.90
31809;DHT22;18379;48.208;-1.518;2022-09-01T06:14:53;19.60;99.90
31809;DHT22;18379;48.208;-1.518;2022-09-01T06:19:55;19.70;99.90
31809;DHT22;18379;48.208;-1.518;2022-09-01T06:24:56;19.70;99.90
31809;DHT22;18379;48.208;-1.518;2022-09-01T06:29:59;19.70;99.90
31809;DHT22;18379;48.208;-1.518;2022-09-01T06:34:59;19.70;99.90
31809;DHT22;18379;48.208;-1.518;2022-09-01T06:40:06;19.80;99.90
31809;DHT22;18379;48.208;-1.518;2022-09-01T06:45:18;19.80;99.90
31809;DHT22;18379;48.208;-1.518;2022-09-01T06:50:21;19.80;99.90
31809;DHT22;18379;48.208;-1.518;2022-09-01T06:55:24;19.90;99.90
31809;DHT22;18379;48.208;-1.518;2022-09-01T07:00:24;19.90;99.90
31809;DHT22;18379;48.208;-1.518;2022-09-01T07:05:26;19.80;99.90
31809;DHT22;18379;48.208;-1.518;2022-09-01T07:10:27;19.90;99.90
31809;DHT22;18379;48.208;-1.518;2022-09-01T07:15:27;19.90;99.90
31809;DHT22;18379;48.208;-1.518;2022-09-01T07:20:32;19.90;99.90
31809;DHT22;18379;48.208;-1.518;2022-09-01T07:25:39;20.00;99.90
31809;DHT22;18379;48.208;-1.518;2022-09-01T07:30:45;20.00;99.90
31809;DHT22;18379;48.208;-1.518;2022-09-01T07:35:48;20.00;99.90
31809;DHT22;18379;48.208;-1.518;2022-09-01T07:40:49;20.10;99.90
31809;DHT22;18379;48.208;-1.518;2022-09-01T07:45:55;20.30;99.90
31809;DHT22;18379;48.208;-1.518;2022-09-01T07:50:58;20.40;99.90
31809;DHT22;18379;48.208;-1.518;2022-09-01T07:56:05;20.60;99.90
31809;DHT22;18379;48.208;-1.518;2022-09-01T08:01:12;20.80;99.90
31809;DHT22;18379;48.208;-1.518;2022-09-01T08:06:14;20.90;99.90
31809;DHT22;18379;48.208;-1.518;2022-09-01T08:11:24;21.00;99.90
31809;DHT22;18379;48.208;-1.518;2022-09-01T08:16:27;21.00;99.90
31809;DHT22;18379;48.208;-1.518;2022-09-01T08:21:29;21.00;99.90
31809;DHT22;18379;48.208;-1.518;2022-09-01T08:26:30;21.10;99.90
31809;DHT22;18379;48.208;-1.518;2022-09-01T08:31:31;21.10;99.90
31809;DHT22;18379;48.208;-1.518;2022-09-01T08:36:32;21.20;99.90
31809;DHT22;18379;48.208;-1.518;2022-09-01T08:41:58;21.20;99.90
31809;DHT22;18379;48.208;-1.518;2022-09-01T08:47:07;21.20;99.90
31809;DHT22;18379;48.208;-1.518;2022-09-01T08:52:33;21.20;99.90
31809;DHT22;18379;48.208;-1.518;2022-09-01T08:57:38;21.10;99.90
31809;DHT22;18379;48.208;-1.518;2022-09-01T09:08:01;21.10;99.90
31809;DHT22;18379;48.208;-1.518;2022-09-01T09:13:18;21.20;99.90
31809;DHT22;18379;48.208;-1.518;2022-09-01T09:18:37;21.30;99.90
31809;DHT22;18379;48.208;-1.518;2022-09-01T09:23:42;21.30;99.90
31809;DHT22;18379;48.208;-1.518;2022-09-01T09:28:45;21.30;99.90
31809;DHT22;18379;48.208;-1.518;2022-09-01T09:33:49;21.40;99.90
31809;DHT22;18379;48.208;-1.518;2022-09-01T09:39:16;21.50;99.90
31809;DHT22;18379;48.208;-1.518;2022-09-01T09:44:29;21.50;99.90
31809;DHT22;18379;48.208;-1.518;2022-09-01T09:49:32;21.50;99.90
31809;DHT22;18379;48.208;-1.518;2022-09-01T09:54:36;21.60;99.90
31809;DHT22;18379;48.208;-1.518;2022-09-01T09:59:38;21.60;99.90
31809;DHT22;18379;48.208;-1.518;2022-09-01T10:04:40;21.70;99.90
31809;DHT22;18379;48.208;-1.518;2022-09-01T10:09:41;21.80;99.90
31809;DHT22;18379;48.208;-1.518;2022-09-01T10:14:54;22.00;99.90
31809;DHT22;18379;48.208;-1.518;2022-09-01T10:20:05;22.10;99.90
31809;DHT22;18379;48.208;-1.518;2022-09-01T10:25:15;22.20;99.90
31809;DHT22;18379;48.208;-1.518;2022-09-01T10:30:18;22.40;99.90
31809;DHT22;18379;48.208;-1.518;2022-09-01T10:35:35;22.60;99.90
31809;DHT22;18379;48.208;-1.518;2022-09-01T10:40:44;22.70;99.90
31809;DHT22;18379;48.208;-1.518;2022-09-01T10:45:47;22.80;99.90
31809;DHT22;18379;48.208;-1.518;2022-09-01T10:50:50;23.10;99.90
31809;DHT22;18379;48.208;-1.518;2022-09-01T11:02:18;23.70;99.90
31809;DHT22;18379;48.208;-1.518;2022-09-01T11:13:03;24.40;99.90
31809;DHT22;18379;48.208;-1.518;2022-09-01T11:18:26;24.60;99.90
31809;DHT22;18379;48.208;-1.518;2022-09-01T11:23:30;24.60;99.90
31809;DHT22;18379;48.208;-1.518;2022-09-01T11:28:38;24.50;99.90
31809;DHT22;18379;48.208;-1.518;2022-09-01T11:44:22;24.10;99.90
31809;DHT22;18379;48.208;-1.518;2022-09-01T11:54:31;24.00;99.90
31809;DHT22;18379;48.208;-1.518;2022-09-01T11:59:37;24.10;99.90
31809;DHT22;18379;48.208;-1.518;2022-09-01T12:04:38;24.10;99.90
31809;DHT22;18379;48.208;-1.518;2022-09-01T12:09:41;24.20;99.90
31809;DHT22;18379;48.208;-1.518;2022-09-01T12:15:05;24.20;99.90
31809;DHT22;18379;48.208;-1.518;2022-09-01T12:20:27;24.30;99.90
31809;DHT22;18379;48.208;-1.518;2022-09-01T12:25:32;24.40;99.90
31809;DHT22;18379;48.208;-1.518;2022-09-01T12:30:34;24.50;99.90
31809;DHT22;18379;48.208;-1.518;2022-09-01T12:35:38;24.60;99.90
31809;DHT22;18379;48.208;-1.518;2022-09-01T12:40:39;24.60;99.90
31809;DHT22;18379;48.208;-1.518;2022-09-01T12:45:46;24.70;99.90
31809;DHT22;18379;48.208;-1.518;2022-09-01T12:50:47;25.00;99.90
31809;DHT22;18379;48.208;-1.518;2022-09-01T12:56:17;25.10;99.90
31809;DHT22;18379;48.208;-1.518;2022-09-01T13:01:28;25.10;99.90
31809;DHT22;18379;48.208;-1.518;2022-09-01T13:06:29;25.10;99.90
31809;DHT22;18379;48.208;-1.518;2022-09-01T13:11:30;25.30;99.90
31809;DHT22;18379;48.208;-1.518;2022-09-01T13:16:31;25.40;99.90
31809;DHT22;18379;48.208;-1.518;2022-09-01T13:21:33;25.40;99.90
31809;DHT22;18379;48.208;-1.518;2022-09-01T13:26:34;25.40;99.90
31809;DHT22;18379;48.208;-1.518;2022-09-01T13:31:35;25.40;99.90
31809;DHT22;18379;48.208;-1.518;2022-09-01T13:36:36;25.30;99.90
31809;DHT22;18379;48.208;-1.518;2022-09-01T13:41:36;25.10;99.90
31809;DHT22;18379;48.208;-1.518;2022-09-01T13:46:41;25.10;99.90
31809;DHT22;18379;48.208;-1.518;2022-09-01T13:51:42;24.90;99.90
31809;DHT22;18379;48.208;-1.518;2022-09-01T13:56:43;25.10;99.90
31809;DHT22;18379;48.208;-1.518;2022-09-01T14:01:43;25.20;99.90
31809;DHT22;18379;48.208;-1.518;2022-09-01T14:06:45;25.10;99.90
31809;DHT22;18379;48.208;-1.518;2022-09-01T14:11:46;24.90;99.90
31809;DHT22;18379;48.208;-1.518;2022-09-01T14:16:47;24.80;99.90
31809;DHT22;18379;48.208;-1.518;2022-09-01T14:21:48;24.60;99.90
31809;DHT22;18379;48.208;-1.518;2022-09-01T14:26:49;24.50;99.90
31809;DHT22;18379;48.208;-1.518;2022-09-01T14:31:50;24.60;99.90
31809;DHT22;18379;48.208;-1.518;2022-09-01T14:36:51;24.90;99.60
31809;DHT22;18379;48.208;-1.518;2022-09-01T14:41:57;24.90;98.70
31809;DHT22;18379;48.208;-1.518;2022-09-01T14:46:57;24.90;98.90
31809;DHT22;18379;48.208;-1.518;2022-09-01T14:51:58;25.00;99.10
31809;DHT22;18379;48.208;-1.518;2022-09-01T14:57:02;25.20;99.20
31809;DHT22;18379;48.208;-1.518;2022-09-01T15:02:03;25.10;98.50
31809;DHT22;18379;48.208;-1.518;2022-09-01T15:07:04;25.00;98.20
31809;DHT22;18379;48.208;-1.518;2022-09-01T15:12:06;24.90;98.30
31809;DHT22;18379;48.208;-1.518;2022-09-01T15:17:08;24.80;98.20
31809;DHT22;18379;48.208;-1.518;2022-09-01T15:22:10;24.90;98.70
31809;DHT22;18379;48.208;-1.518;2022-09-01T15:27:13;24.90;98.30
31809;DHT22;18379;48.208;-1.518;2022-09-01T15:32:14;24.90;98.50
31809;DHT22;18379;48.208;-1.518;2022-09-01T15:37:16;25.10;98.60
31809;DHT22;18379;48.208;-1.518;2022-09-01T15:42:16;25.20;98.30
31809;DHT22;18379;48.208;-1.518;2022-09-01T15:47:18;25.20;98.10
31809;DHT22;18379;48.208;-1.518;2022-09-01T15:52:19;25.10;98.00
31809;DHT22;18379;48.208;-1.518;2022-09-01T15:57:20;25.10;98.10
31809;DHT22;18379;48.208;-1.518;2022-09-01T16:02:21;24.90;97.80
31809;DHT22;18379;48.208;-1.518;2022-09-01T16:07:23;24.90;97.90
31809;DHT22;18379;48.208;-1.518;2022-09-01T16:12:24;24.90;98.00
31809;DHT22;18379;48.208;-1.518;2022-09-01T16:17:50;24.90;98.00
31809;DHT22;18379;48.208;-1.518;2022-09-01T16:22:57;25.00;98.40
31809;DHT22;18379;48.208;-1.518;2022-09-01T16:33:21;25.10;98.20
31809;DHT22;18379;48.208;-1.518;2022-09-01T16:43:58;25.10;98.10
31809;DHT22;18379;48.208;-1.518;2022-09-01T16:54:38;25.20;98.10
31809;DHT22;18379;48.208;-1.518;2022-09-01T16:59:47;25.30;98.00
31809;DHT22;18379;48.208;-1.518;2022-09-01T17:05:31;25.10;98.80
31809;DHT22;18379;48.208;-1.518;2022-09-01T17:16:21;24.40;98.90
31809;DHT22;18379;48.208;-1.518;2022-09-01T17:22:04;24.10;99.30
31809;DHT22;18379;48.208;-1.518;2022-09-01T17:27:31;24.10;99.90
31809;DHT22;18379;48.208;-1.518;2022-09-01T17:43:32;23.50;99.90
31809;DHT22;18379;48.208;-1.518;2022-09-01T17:48:53;23.20;99.90
31809;DHT22;18379;48.208;-1.518;2022-09-01T17:59:27;23.00;99.90
31809;DHT22;18379;48.208;-1.518;2022-09-01T18:10:02;22.80;99.90
31809;DHT22;18379;48.208;-1.518;2022-09-01T18:15:13;21.90;99.90
31809;DHT22;18379;48.208;-1.518;2022-09-01T18:20:39;21.50;99.90
31809;DHT22;18379;48.208;-1.518;2022-09-01T18:25:51;21.30;99.90
31809;DHT22;18379;48.208;-1.518;2022-09-01T18:30:59;21.30;99.90
31809;DHT22;18379;48.208;-1.518;2022-09-01T18:57:57;20.90;99.90
31809;DHT22;18379;48.208;-1.518;2022-09-01T19:03:30;21.00;99.90
31809;DHT22;18379;48.208;-1.518;2022-09-01T19:08:46;20.90;99.90
31809;DHT22;18379;48.208;-1.518;2022-09-01T19:14:13;20.90;99.90
31809;DHT22;18379;48.208;-1.518;2022-09-01T19:24:46;20.90;99.90
31809;DHT22;18379;48.208;-1.518;2022-09-01T19:30:00;20.80;99.90
31809;DHT22;18379;48.208;-1.518;2022-09-01T19:35:15;20.70;99.90
31809;DHT22;18379;48.208;-1.518;2022-09-01T19:40:25;20.70;99.90
31809;DHT22;18379;48.208;-1.518;2022-09-01T19:45:46;20.80;99.90
31809;DHT22;18379;48.208;-1.518;2022-09-01T19:56:13;20.90;99.90
31809;DHT22;18379;48.208;-1.518;2022-09-01T20:01:42;20.90;99.90
31809;DHT22;18379;48.208;-1.518;2022-09-01T20:06:49;20.90;99.90
31809;DHT22;18379;48.208;-1.518;2022-09-01T20:17:47;20.90;99.90
31809;DHT22;18379;48.208;-1.518;2022-09-01T20:23:00;21.00;99.90
31809;DHT22;18379;48.208;-1.518;2022-09-01T20:33:40;21.00;99.90
31809;DHT22;18379;48.208;-1.518;2022-09-01T20:38:54;21.10;99.90
31809;DHT22;18379;48.208;-1.518;2022-09-01T20:49:41;21.10;99.90
31809;DHT22;18379;48.208;-1.518;2022-09-01T20:54:58;21.10;99.90
31809;DHT22;18379;48.208;-1.518;2022-09-01T21:00:08;21.20;99.90
31809;DHT22;18379;48.208;-1.518;2022-09-01T21:26:35;21.20;99.90
31809;DHT22;18379;48.208;-1.518;2022-09-01T21:31:37;21.10;99.90
31809;DHT22;18379;48.208;-1.518;2022-09-01T21:36:38;20.90;99.90
31809;DHT22;18379;48.208;-1.518;2022-09-01T21:41:39;20.70;99.90
31809;DHT22;18379;48.208;-1.518;2022-09-01T21:46:40;20.40;99.90
31809;DHT22;18379;48.208;-1.518;2022-09-01T21:51:42;20.40;99.90
31809;DHT22;18379;48.208;-1.518;2022-09-01T21:56:43;20.50;99.90
31809;DHT22;18379;48.208;-1.518;2022-09-01T22:01:43;20.50;99.90
31809;DHT22;18379;48.208;-1.518;2022-09-01T22:06:45;20.50;99.90
31809;DHT22;18379;48.208;-1.518;2022-09-01T22:11:49;20.50;99.90
31809;DHT22;18379;48.208;-1.518;2022-09-01T22:16:50;20.30;99.90
31809;DHT22;18379;48.208;-1.518;2022-09-01T22:21:51;20.10;99.90
31809;DHT22;18379;48.208;-1.518;2022-09-01T22:26:54;19.80;99.90
31809;DHT22;18379;48.208;-1.518;2022-09-01T22:31:56;19.50;99.90
31809;DHT22;18379;48.208;-1.518;2022-09-01T22:36:57;19.50;99.90
31809;DHT22;18379;48.208;-1.518;2022-09-01T22:41:57;19.60;99.90
31809;DHT22;18379;48.208;-1.518;2022-09-01T22:46:59;19.60;99.90
31809;DHT22;18379;48.208;-1.518;2022-09-01T22:52:00;19.50;99.90
31809;DHT22;18379;48.208;-1.518;2022-09-01T22:57:01;19.40;99.90
31809;DHT22;18379;48.208;-1.518;2022-09-01T23:02:02;19.50;99.90
31809;DHT22;18379;48.208;-1.518;2022-09-01T23:07:04;19.60;99.90
31809;DHT22;18379;48.208;-1.518;2022-09-01T23:12:06;19.70;99.90
31809;DHT22;18379;48.208;-1.518;2022-09-01T23:17:07;19.70;99.90
31809;DHT22;18379;48.208;-1.518;2022-09-01T23:22:07;19.60;99.90
31809;DHT22;18379;48.208;-1.518;2022-09-01T23:27:08;19.50;99.90
31809;DHT22;18379;48.208;-1.518;2022-09-01T23:32:09;19.40;99.90
31809;DHT22;18379;48.208;-1.518;2022-09-01T23:37:10;19.40;99.90
31809;DHT22;18379;48.208;-1.518;2022-09-01T23:42:11;19.40;99.90
31809;DHT22;18379;48.208;-1.518;2022-09-01T23:47:11;19.40;99.90
31809;DHT22;18379;48.208;-1.518;2022-09-01T23:52:12;19.40;99.90
31809;DHT22;18379;48.208;-1.518;2022-09-01T23:57:13;19.50;99.90
